createdAt,value
2023-04-22T00:03:17.627Z,67.80
2023-04-22T00:08:21.452Z,67.80
2023-04-22T00:13:26.557Z,67.90
2023-04-22T00:18:30.288Z,67.90
2023-04-22T00:23:33.718Z,67.90
2023-04-22T00:28:38.766Z,67.90
2023-04-22T00:33:42.685Z,67.90
2023-04-22T00:38:51.241Z,68.00
2023-04-22T00:43:56.593Z,67.90
2023-04-22T00:49:01.128Z,68.00
2023-04-22T00:54:06.467Z,68.00
2023-04-22T00:59:12.423Z,68.10
2023-04-22T01:04:16.383Z,68.10
2023-04-22T01:09:21.121Z,68.10
2023-04-22T01:14:26.708Z,68.10
2023-04-22T01:19:30.484Z,68.20
2023-04-22T01:24:36.093Z,68.10
2023-04-22T01:29:40.859Z,68.20
2023-04-22T01:34:44.561Z,68.20
2023-04-22T01:39:50.950Z,68.20
2023-04-22T01:44:54.438Z,68.20
2023-04-22T01:49:58.086Z,68.20
2023-04-22T01:55:03.869Z,68.30
2023-04-22T02:00:10.166Z,68.30
2023-04-22T02:05:16.386Z,68.20
2023-04-22T02:10:24.479Z,68.30
2023-04-22T02:15:27.921Z,68.30
2023-04-22T02:20:31.423Z,68.30
2023-04-22T02:25:36.251Z,68.30
2023-04-22T02:30:39.714Z,68.40
2023-04-22T02:35:43.161Z,68.40
2023-04-22T02:40:48.131Z,68.40
2023-04-22T02:45:51.677Z,68.40
2023-04-22T02:50:55.807Z,68.40
2023-04-22T02:56:00.840Z,68.50
2023-04-22T03:01:04.550Z,68.50
2023-04-22T03:06:08.383Z,68.50
2023-04-22T03:11:13.908Z,68.50
2023-04-22T03:16:19.148Z,68.50
2023-04-22T03:21:24.868Z,68.60
2023-04-22T03:26:30.048Z,68.60
2023-04-22T03:31:33.803Z,68.60
2023-04-22T03:36:37.568Z,68.60
2023-04-22T03:41:42.580Z,68.60
2023-04-22T03:46:48.694Z,68.60
2023-04-22T03:51:58.697Z,68.70
2023-04-22T03:57:04.018Z,68.70
2023-04-22T04:02:09.002Z,68.70
2023-04-22T04:07:12.907Z,68.70
2023-04-22T04:12:17.802Z,68.70
2023-04-22T04:17:25.729Z,68.80
2023-04-22T04:22:30.878Z,68.70
2023-04-22T04:27:39.180Z,68.70
2023-04-22T04:32:45.851Z,68.70
2023-04-22T04:37:53.785Z,68.80
2023-04-22T04:43:03.442Z,68.80
2023-04-22T04:48:13.423Z,68.80
2023-04-22T04:53:19.095Z,68.80
2023-04-22T04:58:24.382Z,68.80
2023-04-22T05:03:42.166Z,68.80
2023-04-22T05:08:46.258Z,68.80
2023-04-22T05:13:51.680Z,68.90
2023-04-22T05:19:02.164Z,68.90
2023-04-22T05:24:06.433Z,68.90
2023-04-22T05:29:11.800Z,68.90
2023-04-22T05:34:15.736Z,68.90
2023-04-22T05:39:19.898Z,68.90
2023-04-22T05:44:25.091Z,68.90
2023-04-22T05:49:29.179Z,68.90
2023-04-22T05:54:54.127Z,68.90
2023-04-22T06:00:00.210Z,68.90
2023-04-22T06:05:04.620Z,68.90
2023-04-22T06:10:10.704Z,68.90
2023-04-22T06:15:15.696Z,69.00
2023-04-22T06:20:19.464Z,69.00
2023-04-22T06:25:23.266Z,68.90
2023-04-22T06:30:29.259Z,68.90
2023-04-22T06:35:33.294Z,69.00
2023-04-22T06:40:37.175Z,68.90
2023-04-22T06:45:56.574Z,69.00
2023-04-22T06:51:15.748Z,69.00
2023-04-22T06:56:19.305Z,69.00
2023-04-22T07:01:24.177Z,69.00
2023-04-22T07:06:27.993Z,69.00
2023-04-22T07:11:32.937Z,68.90
2023-04-22T07:16:58.031Z,69.00
2023-04-22T07:22:03.351Z,68.90
2023-04-22T07:27:06.970Z,68.90
2023-04-22T07:32:11.887Z,68.90
2023-04-22T07:37:15.434Z,68.90
2023-04-22T07:42:18.969Z,68.90
2023-04-22T07:47:23.820Z,68.90
2023-04-22T07:52:27.322Z,68.90
2023-04-22T07:57:30.760Z,68.90
2023-04-22T08:02:35.904Z,68.90
2023-04-22T08:07:39.483Z,68.90
2023-04-22T08:12:42.959Z,68.90
2023-04-22T08:17:47.892Z,68.90
2023-04-22T08:22:52.799Z,68.90
2023-04-22T08:27:56.284Z,68.90
2023-04-22T08:33:02.447Z,68.90
2023-04-22T08:38:06.055Z,68.90
2023-04-22T08:43:10.715Z,68.90
2023-04-22T08:48:16.134Z,68.90
2023-04-22T08:53:19.628Z,68.90
2023-04-22T08:58:24.821Z,68.80
2023-04-22T09:03:29.962Z,68.90
2023-04-22T09:08:34.073Z,68.90
2023-04-22T09:13:37.593Z,68.90
2023-04-22T09:18:45.904Z,68.90
2023-04-22T09:23:54.033Z,69.00
2023-04-22T09:29:00.708Z,69.30
2023-04-22T09:34:06.935Z,69.00
2023-04-22T09:39:11.362Z,69.00
2023-04-22T09:44:19.016Z,69.00
2023-04-22T09:49:24.499Z,69.10
2023-04-22T09:54:28.126Z,69.10
2023-04-22T09:59:32.105Z,69.10
2023-04-22T10:04:37.212Z,69.10
2023-04-22T10:09:41.341Z,69.10
2023-04-22T10:14:44.901Z,69.10
2023-04-22T10:19:50.836Z,69.10
2023-04-22T10:24:56.071Z,69.10
2023-04-22T10:29:59.609Z,69.20
2023-04-22T10:35:16.487Z,69.10
2023-04-22T10:40:22.707Z,69.30
2023-04-22T10:45:27.513Z,69.20
2023-04-22T10:50:33.789Z,69.10
2023-04-22T10:55:52.913Z,69.20
2023-04-22T11:01:00.225Z,69.30
2023-04-22T11:06:27.978Z,69.20
2023-04-22T11:11:31.720Z,69.20
2023-04-22T11:16:35.698Z,69.30
2023-04-22T11:21:41.077Z,69.20
2023-04-22T11:26:44.536Z,69.20
2023-04-22T11:31:48.533Z,69.20
2023-04-22T11:36:53.441Z,69.30
2023-04-22T11:42:02.667Z,69.40
2023-04-22T11:47:06.400Z,69.40
2023-04-22T11:52:19.613Z,69.40
2023-04-22T11:57:26.714Z,69.40
2023-04-22T12:02:30.385Z,69.40
2023-04-22T12:07:35.303Z,69.40
2023-04-22T12:12:41.220Z,69.40
2023-04-22T12:17:46.966Z,69.40
2023-04-22T12:22:54.834Z,69.40
2023-04-22T12:27:58.426Z,69.50
2023-04-22T12:33:02.011Z,69.50
2023-04-22T12:38:06.932Z,69.40
2023-04-22T12:43:10.481Z,70.30
2023-04-22T12:48:14.087Z,69.50
2023-04-22T12:53:18.972Z,69.50
2023-04-22T12:58:22.700Z,69.50
2023-04-22T13:03:26.321Z,69.50
2023-04-22T13:08:31.292Z,69.50
2023-04-22T13:13:34.751Z,69.60
2023-04-22T13:18:38.199Z,69.60
2023-04-22T13:23:43.477Z,69.60
2023-04-22T13:28:46.920Z,69.60
2023-04-22T13:33:51.555Z,69.60
2023-04-22T13:38:56.346Z,69.60
2023-04-22T13:44:00.193Z,69.70
2023-04-22T13:49:03.673Z,69.70
2023-04-22T13:54:09.335Z,69.70
2023-04-22T13:59:12.863Z,69.80
2023-04-22T14:04:16.356Z,69.70
2023-04-22T14:09:21.226Z,69.80
2023-04-22T14:14:24.732Z,69.80
2023-04-22T14:19:30.359Z,69.80
2023-04-22T14:24:35.599Z,69.90
2023-04-22T14:29:39.357Z,69.80
2023-04-22T14:34:43.018Z,69.80
2023-04-22T14:39:47.850Z,69.90
2023-04-22T14:44:51.292Z,70.00
2023-04-22T14:49:54.804Z,70.00
2023-04-22T14:55:05.749Z,70.10
2023-04-22T15:00:16.575Z,69.80
2023-04-22T15:05:20.598Z,69.30
2023-04-22T15:10:26.161Z,69.40
2023-04-22T15:15:29.879Z,69.40
2023-04-22T15:20:33.400Z,69.40
2023-04-22T15:25:39.056Z,69.30
2023-04-22T15:30:42.480Z,68.90
2023-04-22T15:35:47.632Z,68.60
2023-04-22T15:40:52.520Z,68.30
2023-04-22T15:45:59.268Z,68.10
2023-04-22T15:51:02.763Z,68.10
2023-04-22T15:56:08.225Z,68.30
2023-04-22T16:06:21.685Z,68.60
2023-04-22T16:11:26.658Z,68.20
2023-04-22T16:16:30.316Z,68.10
2023-04-22T16:21:33.950Z,68.40
2023-04-22T16:26:38.938Z,68.60
2023-04-22T16:31:42.408Z,68.40
2023-04-22T16:36:45.937Z,68.10
2023-04-22T16:41:51.042Z,67.90
2023-04-22T16:46:54.596Z,67.90
2023-04-22T16:51:58.545Z,68.10
2023-04-22T16:57:04.807Z,68.30
2023-04-22T17:02:08.387Z,68.30
2023-04-22T17:07:11.907Z,68.00
2023-04-22T17:12:16.830Z,67.90
2023-04-22T17:17:20.307Z,68.10
2023-04-22T17:22:24.802Z,68.40
2023-04-22T17:27:29.739Z,68.30
2023-04-22T17:32:33.423Z,68.10
2023-04-22T17:37:36.921Z,68.10
2023-04-22T17:42:46.267Z,68.30
2023-04-22T17:47:50.259Z,68.40
2023-04-22T17:52:53.865Z,68.60
2023-04-22T17:58:00.019Z,68.20
2023-04-22T18:03:04.286Z,68.10
2023-04-22T18:08:10.366Z,68.00
2023-04-22T18:13:15.391Z,68.20
2023-04-22T18:18:18.836Z,68.30
2023-04-22T18:23:22.548Z,68.60
2023-04-22T18:28:27.395Z,68.50
2023-04-22T18:33:31.256Z,68.20
2023-04-22T18:38:34.896Z,67.90
2023-04-22T18:43:39.779Z,67.90
2023-04-22T18:48:43.464Z,68.00
2023-04-22T18:53:48.961Z,68.20
2023-04-22T18:58:55.294Z,68.20
2023-04-22T19:04:01.565Z,67.90
2023-04-22T19:09:05.631Z,67.80
2023-04-22T19:14:10.647Z,67.80
2023-04-22T19:19:14.118Z,68.10
2023-04-22T19:24:17.644Z,68.20
2023-04-22T19:29:22.549Z,68.30
2023-04-22T19:34:26.931Z,68.50
2023-04-22T19:39:30.906Z,68.00
2023-04-22T19:44:36.309Z,67.90
2023-04-22T19:49:42.222Z,68.00
2023-04-22T19:54:47.820Z,68.20
2023-04-22T19:59:54.043Z,68.30
2023-04-22T20:04:59.536Z,68.50
2023-04-22T20:10:06.868Z,68.30
2023-04-22T20:15:13.470Z,68.00
2023-04-22T20:20:17.760Z,68.00
2023-04-22T20:25:23.079Z,68.10
2023-04-22T20:30:28.739Z,68.30
2023-04-22T20:35:35.597Z,68.20
2023-04-22T20:40:40.107Z,68.00
2023-04-22T20:45:44.948Z,68.00
2023-04-22T20:50:48.507Z,68.10
2023-04-22T20:55:52.075Z,68.20
2023-04-22T21:00:57.249Z,68.10
2023-04-22T21:06:02.150Z,68.00
2023-04-22T21:11:06.882Z,68.00
2023-04-22T21:16:14.864Z,68.10
2023-04-22T21:21:19.176Z,68.30
2023-04-22T21:26:23.793Z,68.40
2023-04-22T21:31:28.760Z,68.40
2023-04-22T21:36:32.631Z,68.20
2023-04-22T21:41:36.475Z,67.90
2023-04-22T21:46:41.441Z,68.10
2023-04-22T21:51:45.032Z,68.20
2023-04-22T21:56:48.606Z,68.20
2023-04-22T22:01:54.386Z,68.00
2023-04-22T22:06:58.050Z,67.90
2023-04-22T22:12:01.884Z,67.90
2023-04-22T22:17:08.431Z,68.10
2023-04-22T22:22:11.932Z,68.10
2023-04-22T22:27:15.628Z,68.10
2023-04-22T22:32:20.453Z,68.00
2023-04-22T22:37:26.031Z,68.20
2023-04-22T22:42:29.525Z,68.20
2023-04-22T22:47:34.455Z,68.30
2023-04-22T22:52:37.973Z,68.80
2023-04-22T22:57:41.409Z,67.90
2023-04-22T23:02:46.336Z,68.10
2023-04-22T23:07:50.137Z,68.10
2023-04-22T23:12:53.576Z,68.20
2023-04-22T23:17:58.412Z,68.00
2023-04-22T23:23:02.694Z,68.10
2023-04-22T23:28:09.735Z,68.20
2023-04-22T23:33:15.633Z,68.20
2023-04-22T23:38:19.512Z,68.20
2023-04-22T23:43:23.004Z,68.70
2023-04-22T23:48:28.008Z,68.00
2023-04-22T23:53:31.523Z,68.10
2023-04-22T23:58:35.953Z,68.10
